aviador You're here:

LBWN Decoded Metar

VARNA in BULGARIA
Report Time2017-08-19 20:00:00
UTC Time2017-08-19 20:28:38
Flight Rules vfr VFR
Wind240° at 04 kt
W.Decomp.*RWY 27: 3.3 kt HW 2.2 kt LCW
W.Rank240° ranks 25
Current wind is below 240° avg. (5.8)
Visibility9999 m
Phenomena:N/A
Clouds:N/A
Expected CloudBase > 4,000 ft AGL from Temp-Dew spread
CeilingNone
Temp23°C (ISA +8)
Dew Point13°C (53% RH)
AAT22.5°C
QNH1015 hPa
Density Alt1,237 ft
Elevation141 ft
Report Wrong Elevation
Raw Report
LBWN 192000Z 24004KT 190V280 CAVOK 23/13 Q1015 NOSIG=

Extra information for LBWN:More info

Metar Taf Metar & Taf Last 4 Metars F.Rules Stats Wind Profile Meteogram Temp Stats Airport Information Weather charts Add Link Nearby VenuesMetar ALERT Operation Metar Decoded Social comments